createdAt,value
2022-10-09T00:01:56.055Z,11.93
2022-10-09T00:05:56.784Z,11.50
2022-10-09T00:09:59.216Z,11.88
2022-10-09T00:14:01.333Z,12.27
2022-10-09T00:18:04.850Z,11.57
2022-10-09T00:22:04.456Z,12.52
2022-10-09T00:26:12.074Z,11.98
2022-10-09T00:30:13.161Z,11.88
2022-10-09T00:34:14.163Z,12.82
2022-10-09T00:38:15.024Z,11.55
2022-10-09T00:42:21.336Z,10.48
2022-10-09T00:46:30.897Z,9.75
2022-10-09T00:50:43.269Z,8.23
2022-10-09T00:54:47.391Z,9.07
2022-10-09T00:58:54.879Z,8.10
2022-10-09T01:02:59.205Z,8.98
2022-10-09T01:07:13.692Z,9.00
2022-10-09T01:11:36.126Z,9.90
2022-10-09T01:15:46.552Z,9.00
2022-10-09T01:20:14.584Z,10.18
2022-10-09T01:24:26.486Z,9.23
2022-10-09T01:28:48.860Z,8.15
2022-10-09T01:33:07.040Z,8.55
2022-10-09T01:37:15.508Z,9.82
2022-10-09T01:41:17.349Z,10.80
2022-10-09T01:45:25.011Z,12.07
2022-10-09T01:49:49.286Z,9.32
2022-10-09T01:53:57.303Z,29.67
2022-10-09T01:58:08.098Z,14.82
2022-10-09T02:02:15.198Z,13.27
2022-10-09T02:06:43.773Z,10.13
2022-10-09T02:10:50.070Z,10.00
2022-10-09T02:14:58.790Z,9.98
2022-10-09T02:19:04.814Z,9.82
2022-10-09T02:23:09.655Z,11.18
2022-10-09T02:27:12.398Z,12.65
2022-10-09T02:31:20.103Z,10.13
2022-10-09T02:35:23.695Z,10.00
2022-10-09T02:39:39.873Z,13.25
2022-10-09T02:43:40.745Z,10.10
2022-10-09T02:47:41.006Z,38.92
2022-10-09T02:51:47.289Z,34.83
2022-10-09T02:55:51.378Z,11.60
2022-10-09T02:59:51.813Z,10.73
2022-10-09T03:03:56.764Z,10.50
2022-10-09T03:08:30.777Z,9.45
2022-10-09T03:12:36.887Z,9.90
2022-10-09T03:16:38.516Z,14.00
2022-10-09T03:20:43.027Z,17.00
2022-10-09T03:24:44.489Z,13.63
2022-10-09T03:28:49.338Z,11.88
2022-10-09T03:33:02.623Z,12.90
2022-10-09T03:37:03.270Z,10.35
2022-10-09T03:41:06.126Z,8.82
2022-10-09T03:45:09.712Z,9.60
2022-10-09T03:49:11.035Z,9.40
2022-10-09T03:53:14.499Z,8.98
2022-10-09T03:57:15.124Z,9.80
2022-10-09T04:01:17.409Z,9.63
2022-10-09T04:05:18.200Z,9.75
2022-10-09T04:09:18.327Z,10.57
2022-10-09T04:13:18.733Z,10.45
2022-10-09T04:17:21.933Z,19.20
2022-10-09T04:21:24.463Z,19.20
2022-10-09T04:25:24.548Z,17.38
2022-10-09T04:29:25.599Z,14.48
2022-10-09T04:33:29.319Z,10.35
2022-10-09T04:37:30.053Z,8.15
2022-10-09T04:41:37.995Z,8.38
2022-10-09T04:45:43.623Z,7.75
2022-10-09T04:49:57.786Z,8.43
2022-10-09T04:54:03.382Z,8.43
2022-10-09T04:58:15.699Z,8.05
2022-10-09T05:02:37.517Z,8.75
2022-10-09T05:06:40.496Z,9.52
2022-10-09T05:10:46.052Z,9.45
2022-10-09T05:23:53.863Z,9.40
2022-10-09T05:28:08.776Z,9.95
2022-10-09T05:32:13.426Z,10.10
2022-10-09T05:36:25.150Z,10.35
2022-10-09T05:40:53.075Z,9.82
2022-10-09T05:44:55.652Z,10.23
2022-10-09T05:49:02.386Z,9.18
2022-10-09T05:53:04.363Z,10.30
2022-10-09T05:57:10.532Z,10.05
2022-10-09T06:01:21.161Z,9.57
2022-10-09T06:09:39.759Z,10.48
2022-10-09T06:13:42.959Z,9.88
2022-10-09T06:17:46.465Z,9.88
2022-10-09T06:21:47.802Z,10.05
2022-10-09T06:25:54.094Z,10.93
2022-10-09T06:29:58.679Z,11.45
2022-10-09T06:34:08.891Z,10.93
2022-10-09T06:38:18.181Z,11.10
2022-10-09T06:47:03.099Z,10.60
2022-10-09T06:51:19.199Z,10.98
2022-10-09T06:55:29.827Z,11.02
2022-10-09T07:03:56.516Z,9.65
2022-10-09T07:08:21.357Z,10.80
2022-10-09T07:12:21.799Z,11.85
2022-10-09T07:17:05.450Z,11.77
2022-10-09T07:21:17.205Z,10.43
2022-10-09T07:25:17.948Z,10.75
2022-10-09T07:29:24.729Z,10.35
2022-10-09T07:33:30.258Z,11.18
2022-10-09T07:37:32.157Z,8.73
2022-10-09T07:41:32.644Z,9.50
2022-10-09T07:45:32.040Z,9.75
2022-10-09T07:49:32.041Z,9.30
2022-10-09T07:53:36.023Z,9.07
2022-10-09T07:57:36.992Z,8.77
2022-10-09T08:01:42.625Z,8.75
2022-10-09T08:05:46.899Z,8.80
2022-10-09T08:10:04.956Z,8.73
2022-10-09T08:14:05.466Z,8.48
2022-10-09T08:18:11.588Z,8.30
2022-10-09T08:22:15.816Z,8.38
2022-10-09T08:26:27.006Z,8.38
2022-10-09T08:30:41.042Z,9.65
2022-10-09T08:34:53.266Z,8.73
2022-10-09T08:43:29.783Z,8.98
2022-10-09T08:47:45.451Z,9.43
2022-10-09T08:51:51.454Z,8.43
2022-10-09T08:56:27.503Z,8.57
2022-10-09T09:00:42.550Z,7.60
2022-10-09T09:05:09.657Z,8.60
2022-10-09T09:09:30.382Z,7.78
2022-10-09T09:18:12.878Z,8.30
2022-10-09T09:22:21.511Z,7.30
2022-10-09T09:26:27.000Z,7.97
2022-10-09T09:30:46.281Z,7.38
2022-10-09T09:35:01.566Z,7.20
2022-10-09T09:40:08.306Z,6.85
2022-10-09T09:43:41.556Z,6.55
2022-10-09T09:48:00.837Z,7.38
2022-10-09T09:52:21.309Z,6.07
2022-10-09T09:57:11.211Z,5.68
2022-10-09T10:01:16.866Z,5.90
2022-10-09T10:05:30.341Z,5.88
2022-10-09T10:09:41.736Z,6.03
2022-10-09T10:14:21.998Z,5.13
2022-10-09T10:18:29.294Z,5.20
2022-10-09T10:22:38.154Z,6.15
2022-10-09T10:26:49.797Z,6.00
2022-10-09T10:30:59.412Z,6.10
2022-10-09T10:35:06.511Z,6.20
2022-10-09T10:39:16.211Z,5.72
2022-10-09T10:43:34.391Z,5.63
2022-10-09T10:47:57.453Z,6.10
2022-10-09T10:52:19.372Z,5.63
2022-10-09T10:56:30.051Z,6.43
2022-10-09T11:00:50.720Z,6.35
2022-10-09T11:05:13.657Z,6.38
2022-10-09T11:09:21.231Z,5.80
2022-10-09T11:13:32.253Z,5.75
2022-10-09T11:17:46.908Z,5.63
2022-10-09T11:22:02.909Z,5.55
2022-10-09T11:26:41.607Z,5.85
2022-10-09T11:31:19.489Z,6.82
2022-10-09T11:36:16.640Z,6.75
2022-10-09T11:40:43.875Z,5.75
2022-10-09T11:44:59.572Z,6.15
2022-10-09T11:49:39.139Z,5.50
2022-10-09T11:54:01.682Z,5.97
2022-10-09T11:58:24.237Z,6.30
2022-10-09T12:02:51.944Z,5.38
2022-10-09T12:07:17.236Z,5.38
2022-10-09T12:11:51.079Z,9.82
2022-10-09T12:21:43.430Z,5.65
2022-10-09T12:26:08.566Z,6.25
2022-10-09T12:30:32.484Z,4.82
2022-10-09T12:35:20.833Z,5.40
2022-10-09T12:39:24.629Z,4.88
2022-10-09T12:43:40.752Z,5.20
2022-10-09T12:48:28.497Z,5.38
2022-10-09T12:53:02.935Z,5.28
2022-10-09T12:57:07.651Z,5.25
2022-10-09T13:01:22.217Z,5.35
2022-10-09T13:12:09.470Z,5.55
2022-10-09T13:17:02.932Z,5.50
2022-10-09T13:21:42.855Z,5.35
2022-10-09T13:26:44.015Z,6.13
2022-10-09T13:31:23.454Z,5.25
2022-10-09T13:35:51.745Z,5.90
2022-10-09T13:45:23.351Z,5.65
2022-10-09T13:50:28.188Z,5.47
2022-10-09T13:55:15.943Z,5.18
2022-10-09T14:04:33.426Z,5.57
2022-10-09T14:09:58.012Z,6.43
2022-10-09T14:14:37.289Z,5.35
2022-10-09T14:18:38.120Z,5.30
2022-10-09T14:23:12.197Z,5.15
2022-10-09T14:28:15.688Z,5.43
2022-10-09T14:32:24.259Z,5.93
2022-10-09T14:36:43.276Z,6.07
2022-10-09T14:46:10.156Z,5.90
2022-10-09T14:50:19.045Z,4.90
2022-10-09T15:03:56.441Z,6.72
2022-10-09T15:09:04.840Z,8.43
2022-10-09T15:14:11.032Z,7.82
2022-10-09T15:18:19.706Z,8.35
2022-10-09T15:23:02.644Z,8.32
2022-10-09T15:28:21.815Z,8.40
2022-10-09T15:37:46.006Z,6.57
2022-10-09T15:42:19.408Z,7.13
2022-10-09T15:47:05.257Z,7.53
2022-10-09T15:51:58.629Z,7.55
2022-10-09T15:56:26.280Z,6.88
2022-10-09T16:00:57.306Z,7.80
2022-10-09T16:05:29.132Z,6.72
2022-10-09T16:09:49.224Z,8.80
2022-10-09T16:14:06.666Z,8.82
2022-10-09T16:18:09.965Z,8.40
2022-10-09T16:22:16.962Z,9.23
2022-10-09T16:26:19.854Z,9.20
2022-10-09T16:30:56.963Z,8.20
2022-10-09T16:35:10.594Z,9.07
2022-10-09T16:39:29.775Z,7.88
2022-10-09T16:43:43.408Z,9.38
2022-10-09T16:47:56.648Z,8.98
2022-10-09T16:52:29.179Z,9.98
2022-10-09T16:56:47.054Z,9.48
2022-10-09T17:00:51.810Z,10.02
2022-10-09T17:04:57.594Z,10.50
2022-10-09T17:09:12.576Z,12.30
2022-10-09T17:13:26.781Z,12.95
2022-10-09T17:17:40.741Z,14.02
2022-10-09T17:21:56.360Z,15.30
2022-10-09T17:27:26.622Z,15.02
2022-10-09T17:37:24.457Z,13.43
2022-10-09T17:42:48.162Z,12.48
2022-10-09T17:47:57.533Z,12.15
2022-10-09T17:52:37.239Z,16.75
2022-10-09T17:57:12.472Z,16.17
2022-10-09T18:01:44.950Z,15.40
2022-10-09T18:06:20.615Z,12.00
2022-10-09T18:10:33.878Z,12.18
2022-10-09T18:14:44.101Z,15.82
2022-10-09T18:19:00.632Z,84.68
2022-10-09T18:28:48.425Z,89.18
2022-10-09T18:33:17.788Z,18.08
2022-10-09T18:37:50.007Z,13.45
2022-10-09T18:43:11.962Z,31.98
2022-10-09T18:58:17.581Z,16.48
2022-10-09T19:02:44.846Z,13.90
2022-10-09T19:07:24.034Z,13.50
2022-10-09T19:17:48.293Z,9.45
2022-10-09T19:22:57.241Z,9.93
2022-10-09T19:33:52.530Z,9.18
2022-10-09T19:38:47.692Z,8.80
2022-10-09T19:59:08.782Z,7.40
2022-10-09T20:03:27.617Z,6.82
2022-10-09T20:08:31.104Z,6.40
2022-10-09T20:13:56.271Z,7.18
2022-10-09T20:23:43.111Z,6.78
2022-10-09T20:28:34.571Z,8.10
2022-10-09T20:32:42.717Z,8.60
2022-10-09T20:36:41.886Z,8.57
2022-10-09T20:40:42.008Z,10.95
2022-10-09T20:44:42.143Z,9.63
2022-10-09T20:48:45.693Z,11.00
2022-10-09T20:52:45.825Z,11.35
2022-10-09T20:56:46.316Z,8.45
2022-10-09T21:00:46.621Z,11.13
2022-10-09T21:04:48.575Z,13.65
2022-10-09T21:08:48.763Z,13.05
2022-10-09T21:12:58.067Z,14.85
2022-10-09T21:16:59.774Z,12.88
2022-10-09T21:21:05.656Z,13.70
2022-10-09T21:25:05.637Z,11.73
2022-10-09T21:29:07.025Z,12.45
2022-10-09T21:33:07.204Z,12.20
2022-10-09T21:37:20.882Z,11.27
2022-10-09T21:41:21.687Z,11.98
2022-10-09T21:45:21.405Z,14.00
2022-10-09T21:49:23.901Z,13.90
2022-10-09T21:53:25.772Z,17.92
2022-10-09T21:57:25.440Z,14.05
2022-10-09T22:01:25.277Z,9.20
2022-10-09T22:05:24.983Z,8.27
2022-10-09T22:09:26.694Z,10.80
2022-10-09T22:13:26.426Z,10.13
2022-10-09T22:17:26.055Z,12.75
2022-10-09T22:21:26.153Z,11.73
2022-10-09T22:25:28.255Z,8.55
2022-10-09T22:29:28.905Z,9.85
2022-10-09T22:33:37.194Z,6.80
2022-10-09T22:37:36.819Z,9.30
2022-10-09T22:41:38.606Z,7.05
2022-10-09T22:45:39.461Z,7.95
2022-10-09T22:49:38.973Z,7.50
2022-10-09T22:53:38.809Z,10.02
2022-10-09T22:57:40.407Z,7.35
2022-10-09T23:01:43.346Z,7.93
2022-10-09T23:05:43.056Z,7.60
2022-10-09T23:09:42.726Z,7.47
2022-10-09T23:13:44.851Z,7.70
2022-10-09T23:17:45.608Z,7.22
2022-10-09T23:21:46.748Z,7.85
2022-10-09T23:25:46.285Z,8.00
2022-10-09T23:29:48.136Z,9.07
2022-10-09T23:33:48.747Z,8.02
2022-10-09T23:37:48.710Z,9.98
2022-10-09T23:41:48.447Z,9.60
2022-10-09T23:45:50.205Z,8.35
2022-10-09T23:49:49.645Z,9.75
2022-10-09T23:53:49.627Z,9.13
2022-10-09T23:57:49.276Z,8.27
